Tisul, Russia
Current Conditions -  °F | °C
As of 6:00 AM on Wednesday 26 Nov 2014 (Local Time) from UNEE Reporting Station
Snow Showers Snow Showers  
Wind Chill: -25°   Ceiling: 600
Heat Index: -16°   Visibility: 1mi
Dew Point: -17°   Wind: 11mph
Humidity: 92%   Direction: 180°S
Pressure: 29.77"   Gusts: NA
Location:  55.76°N, 88.31°E
Report Text: UNEE 252300Z 18005MPS 1700 SHSN OVC006CB M16/M17 Q1008 TEMPO0500 +SHSN BKN003 RMK QFE733 23851040
Loading
Personal Weather Stations






























Interactive Weather Map New forecast layout! Learn more

10-Day Weather Forecast

Advertisements
Track Severe Weather on mobile